Pittsburgh, PA (15229)

9:49 PM EST on February 11, 2016 (GMT -0500)
Perrysville | | Change Station
CLOSE
Current Station
Personal Weather Station
Location: Pittsburgh, PA
Elevation: 1175 ft
Nearby Weather Stations

Elev 1175 ft 40.54 °N, 80.04 °W | Updated 44 seconds ago

Partly Cloudy
Partly Cloudy
12.0 °F
Feels Like 12 °F
N
0.0
Wind Variable Wind from SW
Gusts 1.6 mph

Today
High -- | Low -- °F
--% Chance of Precip.
Yesterday
High -- | Low -- °F
Precip. -- in
Pressure 30.34 in
Visibility 10.0 miles
Clouds Mostly Cloudy 4600 ft
Windchill 12 °F
Dew Point 2 °F
Humidity 65%
Rainfall 0.00 in
Snow Depth Not available.
7:19 AM 5:49 PM
Waxing Crescent, 16% visible
METAR KPIT 120151Z 25004KT 10SM BKN046 M11/M19 A3024 RMK AO2 SLP272 T11061189
Pressure 30.34 in
Visibility 10.0 miles
Clouds Mostly Cloudy 4600 ft
Windchill 12 °F
Dew Point 2 °F
Humidity 65%
Rainfall 0.00 in
Snow Depth Not available.
7:19 AM 5:49 PM
Waxing Crescent, 16% visible
METAR KPIT 120151Z 25004KT 10SM BKN046 M11/M19 A3024 RMK AO2 SLP272 T11061189

10-Day Weather Forecast

Almanac

Astronomy

Feb. 11, 2016 Rise Set
Actual Time
Civil Twilight
Nautical Twilight
Astronomical Twilight
Moon
Length of Visible Light
Length of Day
Tomorrow will be .
, % of the Moon is Illuminated

Today's Extremes

State Highs State Lows

Community

WunderPhotos

Upload Photos

1,892,226 photos uploaded!

WunderBlog® & News

Nearby

Air Quality

  Air Quality AQ Index Pollutant
Not available.

Snow Depth

Station Depth Elevation

Earthquake Activity

City Distance Mag. Time & Date
Minimum magnitude displayed is 2.5.

Coastal Water Temperatures

Place Temperature

Stations

Nearby Weather Stations

Station Location Temp. Windchill Dew Point Humidity Wind Precip. Elev Updated Type
                   

Watches & Warnings

There are currently no watches in effect.